createdAt,value
2023-03-03T00:01:25.891Z,3.12
2023-03-03T00:03:53.019Z,3.14
2023-03-03T00:06:20.780Z,2.79
2023-03-03T00:08:47.764Z,3.20
2023-03-03T00:11:14.228Z,3.48
2023-03-03T00:13:47.069Z,3.41
2023-03-03T00:16:15.024Z,3.03
2023-03-03T00:18:47.007Z,2.68
2023-03-03T00:21:27.318Z,3.00
2023-03-03T00:23:53.793Z,3.06
2023-03-03T00:26:30.705Z,2.98
2023-03-03T00:28:57.365Z,3.02
2023-03-03T00:31:33.359Z,2.83
2023-03-03T00:34:24.266Z,2.85
2023-03-03T00:36:54.045Z,2.80
2023-03-03T00:39:31.877Z,2.90
2023-03-03T00:41:59.222Z,3.00
2023-03-03T00:44:25.486Z,3.20
2023-03-03T00:46:52.174Z,3.01
2023-03-03T00:49:26.448Z,3.04
2023-03-03T00:51:54.080Z,2.96
2023-03-03T00:54:20.483Z,3.10
2023-03-03T00:56:46.854Z,3.29
2023-03-03T00:59:13.381Z,3.01
2023-03-03T01:01:39.808Z,3.02
2023-03-03T01:04:06.213Z,3.06
2023-03-03T01:06:32.687Z,3.14
2023-03-03T01:08:59.123Z,3.77
2023-03-03T01:11:27.251Z,3.68
2023-03-03T01:13:53.663Z,3.36
2023-03-03T01:16:20.920Z,3.32
2023-03-03T01:18:47.259Z,3.18
2023-03-03T01:21:13.716Z,3.03
2023-03-03T01:23:40.189Z,2.84
2023-03-03T01:26:07.181Z,3.30
2023-03-03T01:28:34.229Z,3.02
2023-03-03T01:31:04.190Z,2.92
2023-03-03T01:33:31.130Z,2.98
2023-03-03T01:35:57.784Z,3.05
2023-03-03T01:38:24.363Z,2.78
2023-03-03T01:40:55.486Z,2.70
2023-03-03T01:43:22.792Z,2.78
2023-03-03T01:45:49.067Z,2.93
2023-03-03T01:48:20.585Z,3.50
2023-03-03T01:51:15.851Z,3.29
2023-03-03T01:53:47.962Z,3.19
2023-03-03T01:56:14.514Z,3.01
2023-03-03T01:58:51.542Z,2.90
2023-03-03T02:01:21.744Z,2.85
2023-03-03T02:03:48.587Z,2.93
2023-03-03T02:06:18.461Z,3.17
2023-03-03T02:08:48.081Z,3.28
2023-03-03T02:11:15.023Z,3.07
2023-03-03T02:13:41.417Z,3.30
2023-03-03T02:16:08.356Z,3.31
2023-03-03T02:18:35.115Z,3.19
2023-03-03T02:21:12.254Z,2.91
2023-03-03T02:23:58.413Z,2.79
2023-03-03T02:26:27.879Z,2.84
2023-03-03T02:28:54.640Z,2.71
2023-03-03T02:31:24.913Z,2.62
2023-03-03T02:33:52.770Z,2.80
2023-03-03T02:36:25.141Z,3.31
2023-03-03T02:39:02.979Z,3.27
2023-03-03T02:41:53.676Z,2.99
2023-03-03T02:44:25.164Z,2.77
2023-03-03T02:46:53.538Z,2.99
2023-03-03T02:49:23.880Z,2.88
2023-03-03T02:51:50.788Z,2.72
2023-03-03T02:54:19.582Z,2.56
2023-03-03T02:56:46.858Z,2.46
2023-03-03T02:59:14.030Z,2.44
2023-03-03T03:01:40.761Z,2.46
2023-03-03T03:04:10.723Z,2.47
2023-03-03T03:06:37.942Z,2.48
2023-03-03T03:09:06.430Z,2.56
2023-03-03T03:11:33.367Z,2.28
2023-03-03T03:13:59.806Z,2.25
2023-03-03T03:16:26.249Z,2.39
2023-03-03T03:18:52.571Z,2.30
2023-03-03T03:21:19.327Z,2.24
2023-03-03T03:23:46.000Z,2.77
2023-03-03T03:26:12.420Z,2.69
2023-03-03T03:28:39.162Z,2.51
2023-03-03T03:31:07.690Z,2.45
2023-03-03T03:33:34.603Z,2.52
2023-03-03T03:36:01.782Z,2.60
2023-03-03T03:38:28.984Z,2.61
2023-03-03T03:40:55.831Z,2.59
2023-03-03T03:43:22.950Z,2.41
2023-03-03T03:45:49.778Z,2.45
2023-03-03T03:48:16.922Z,2.37
2023-03-03T03:50:43.326Z,2.41
2023-03-03T03:53:09.686Z,2.36
2023-03-03T03:55:36.406Z,2.40
2023-03-03T03:58:02.782Z,2.39
2023-03-03T04:00:29.377Z,2.29
2023-03-03T04:02:56.149Z,2.53
2023-03-03T04:05:23.273Z,2.63
2023-03-03T04:07:49.653Z,2.52
2023-03-03T04:10:16.172Z,2.39
2023-03-03T04:12:42.477Z,2.37
2023-03-03T04:15:11.653Z,2.22
2023-03-03T04:17:38.285Z,2.20
2023-03-03T04:20:05.986Z,2.53
2023-03-03T04:22:32.551Z,2.46
2023-03-03T04:24:59.195Z,2.27
2023-03-03T04:27:25.574Z,2.24
2023-03-03T04:29:51.929Z,2.34
2023-03-03T04:32:18.468Z,2.47
2023-03-03T04:34:45.407Z,2.50
2023-03-03T04:37:12.670Z,2.59
2023-03-03T04:39:39.048Z,2.52
2023-03-03T04:42:05.512Z,2.44
2023-03-03T04:44:31.814Z,2.40
2023-03-03T04:46:58.193Z,2.28
2023-03-03T04:49:24.604Z,2.22
2023-03-03T04:51:50.912Z,2.24
2023-03-03T04:54:17.354Z,2.21
2023-03-03T04:56:43.924Z,2.11
2023-03-03T04:59:10.336Z,2.17
2023-03-03T05:01:36.822Z,2.11
2023-03-03T05:04:03.525Z,2.24
2023-03-03T05:06:30.104Z,2.16
2023-03-03T05:08:56.555Z,2.01
2023-03-03T05:11:22.915Z,2.01
2023-03-03T05:13:49.303Z,2.06
2023-03-03T05:16:15.921Z,2.03
2023-03-03T05:18:42.270Z,2.07
2023-03-03T05:21:08.641Z,2.00
2023-03-03T05:23:35.029Z,2.05
2023-03-03T05:26:01.406Z,2.23
2023-03-03T05:28:28.093Z,2.29
2023-03-03T05:30:54.624Z,2.16
2023-03-03T05:33:20.997Z,2.06
2023-03-03T05:35:47.584Z,2.19
2023-03-03T05:38:14.177Z,2.16
2023-03-03T05:40:40.656Z,2.23
2023-03-03T05:43:06.953Z,2.24
2023-03-03T05:45:33.250Z,2.20
2023-03-03T05:47:59.910Z,2.05
2023-03-03T05:50:26.247Z,2.09
2023-03-03T05:52:53.334Z,2.51
2023-03-03T05:55:20.027Z,2.60
2023-03-03T05:57:46.332Z,2.30
2023-03-03T06:00:14.239Z,2.60
2023-03-03T06:02:41.819Z,2.43
2023-03-03T06:05:09.705Z,2.43
2023-03-03T06:07:36.367Z,2.35
2023-03-03T06:10:04.239Z,2.35
2023-03-03T06:12:30.787Z,2.41
2023-03-03T06:14:57.267Z,2.27
2023-03-03T06:17:23.810Z,2.19
2023-03-03T06:19:50.475Z,2.14
2023-03-03T06:22:16.776Z,2.19
2023-03-03T06:24:43.264Z,2.31
2023-03-03T06:27:10.436Z,2.11
2023-03-03T06:29:36.853Z,2.22
2023-03-03T06:32:03.385Z,2.27
2023-03-03T06:34:29.896Z,2.33
2023-03-03T06:36:56.554Z,2.68
2023-03-03T06:39:23.010Z,2.31
2023-03-03T06:41:49.529Z,2.39
2023-03-03T06:44:16.090Z,2.27
2023-03-03T06:46:42.645Z,2.30
2023-03-03T06:49:09.069Z,2.45
2023-03-03T06:51:37.518Z,2.27
2023-03-03T06:54:12.589Z,2.25
2023-03-03T06:56:39.585Z,2.08
2023-03-03T06:59:12.936Z,2.09
2023-03-03T07:01:39.635Z,2.08
2023-03-03T07:04:22.441Z,2.51
2023-03-03T07:06:48.989Z,2.14
2023-03-03T07:09:22.547Z,2.11
2023-03-03T07:11:50.276Z,2.32
2023-03-03T07:14:19.627Z,2.31
2023-03-03T07:16:46.578Z,2.27
2023-03-03T07:19:33.178Z,2.29
2023-03-03T07:22:06.772Z,2.53
2023-03-03T07:24:33.200Z,2.41
2023-03-03T07:27:12.490Z,2.47
2023-03-03T07:29:39.272Z,2.56
2023-03-03T07:32:39.372Z,2.43
2023-03-03T07:35:38.448Z,2.22
2023-03-03T07:38:22.348Z,2.30
2023-03-03T07:40:57.272Z,2.11
2023-03-03T07:43:31.239Z,2.06
2023-03-03T07:46:22.171Z,2.13
2023-03-03T07:48:49.550Z,2.18
2023-03-03T07:51:23.520Z,2.47
2023-03-03T07:53:50.186Z,2.57
2023-03-03T07:56:36.121Z,2.46
2023-03-03T07:59:18.410Z,2.45
2023-03-03T08:02:24.970Z,2.64
2023-03-03T08:04:51.876Z,2.55
2023-03-03T08:07:21.410Z,2.52
2023-03-03T08:10:00.852Z,2.30
2023-03-03T08:12:43.627Z,2.18
2023-03-03T08:15:23.579Z,2.01
2023-03-03T08:17:51.581Z,2.08
2023-03-03T08:20:54.441Z,2.20
2023-03-03T08:23:21.476Z,2.07
2023-03-03T08:25:49.571Z,2.14
2023-03-03T08:28:16.599Z,2.29
2023-03-03T08:30:44.014Z,2.64
2023-03-03T08:33:10.967Z,2.40
2023-03-03T08:35:37.456Z,2.51
2023-03-03T08:38:06.319Z,2.68
2023-03-03T08:40:33.240Z,2.41
2023-03-03T08:43:00.089Z,2.50
2023-03-03T08:45:27.151Z,2.26
2023-03-03T08:47:54.731Z,2.40
2023-03-03T08:50:21.618Z,2.34
2023-03-03T08:52:48.952Z,2.46
2023-03-03T08:55:15.656Z,2.77
2023-03-03T08:57:42.309Z,2.90
2023-03-03T09:00:11.677Z,2.43
2023-03-03T09:02:38.127Z,2.22
2023-03-03T09:05:05.351Z,2.24
2023-03-03T09:07:35.568Z,2.25
2023-03-03T09:10:07.124Z,2.46
2023-03-03T09:12:44.840Z,2.52
2023-03-03T09:15:24.509Z,2.49
2023-03-03T09:17:51.678Z,2.35
2023-03-03T09:20:23.130Z,2.92
2023-03-03T09:22:50.568Z,2.30
2023-03-03T09:25:34.376Z,2.87
2023-03-03T09:28:03.081Z,2.59
2023-03-03T09:30:41.914Z,2.62
2023-03-03T09:33:21.112Z,2.65
2023-03-03T09:36:20.825Z,2.35
2023-03-03T09:38:48.091Z,2.68
2023-03-03T09:41:51.574Z,2.39
2023-03-03T09:44:55.792Z,2.35
2023-03-03T09:47:56.760Z,2.30
2023-03-03T09:50:44.487Z,2.52
2023-03-03T09:53:31.774Z,2.81
2023-03-03T09:56:24.926Z,2.61
2023-03-03T09:59:22.144Z,2.51
2023-03-03T10:02:03.893Z,2.56
2023-03-03T10:04:56.331Z,2.62
2023-03-03T10:07:46.182Z,2.99
2023-03-03T10:10:50.508Z,2.74
2023-03-03T10:13:31.886Z,2.70
2023-03-03T10:16:19.656Z,2.65
2023-03-03T10:19:00.004Z,2.70
2023-03-03T10:21:49.679Z,2.74
2023-03-03T10:24:30.971Z,2.98
2023-03-03T10:27:19.340Z,2.79
2023-03-03T10:29:59.090Z,2.82
2023-03-03T10:32:32.566Z,2.80
2023-03-03T10:35:18.498Z,2.75
2023-03-03T10:37:59.838Z,2.72
2023-03-03T10:41:02.418Z,2.72
2023-03-03T10:43:41.245Z,2.78
2023-03-03T10:46:24.183Z,2.65
2023-03-03T10:49:02.326Z,3.03
2023-03-03T10:51:43.121Z,2.80
2023-03-03T10:54:30.249Z,2.88
2023-03-03T10:57:35.392Z,2.91
2023-03-03T11:00:21.529Z,3.05
2023-03-03T11:03:07.823Z,3.14
2023-03-03T11:05:48.827Z,3.00
2023-03-03T11:08:28.847Z,3.12
2023-03-03T11:11:28.018Z,3.17
2023-03-03T11:14:08.985Z,3.10
2023-03-03T11:16:49.796Z,2.96
2023-03-03T11:19:38.216Z,2.99
2023-03-03T11:22:12.634Z,2.96
2023-03-03T11:25:04.033Z,3.06
2023-03-03T11:27:58.544Z,3.20
2023-03-03T11:30:33.869Z,3.13
2023-03-03T11:33:00.205Z,3.20
2023-03-03T11:35:49.790Z,3.02
2023-03-03T11:38:53.799Z,3.18
2023-03-03T11:41:42.867Z,3.51
2023-03-03T11:44:24.194Z,3.31
2023-03-03T11:46:59.335Z,3.21
2023-03-03T11:49:37.350Z,3.30
2023-03-03T11:52:32.808Z,3.26
2023-03-03T11:55:04.652Z,3.24
2023-03-03T11:57:40.935Z,3.50
2023-03-03T12:00:32.374Z,3.50
2023-03-03T12:03:39.200Z,3.61
2023-03-03T12:06:18.601Z,3.50
2023-03-03T12:09:07.032Z,3.53
2023-03-03T12:11:57.952Z,3.64
2023-03-03T12:14:58.590Z,3.53
2023-03-03T12:17:51.880Z,3.67
2023-03-03T12:20:48.105Z,3.91
2023-03-03T12:23:39.561Z,3.67
2023-03-03T12:26:17.240Z,3.67
2023-03-03T12:29:19.670Z,3.89
2023-03-03T12:32:01.045Z,3.67
2023-03-03T12:34:41.359Z,3.86
2023-03-03T12:37:37.219Z,3.86
2023-03-03T12:40:14.612Z,3.84
2023-03-03T12:42:56.026Z,3.86
2023-03-03T12:45:37.936Z,3.78
2023-03-03T12:48:28.469Z,3.93
2023-03-03T12:51:21.927Z,3.91
2023-03-03T12:54:09.863Z,3.92
2023-03-03T12:56:44.953Z,4.10
2023-03-03T12:59:15.557Z,4.13
2023-03-03T13:02:08.487Z,4.14
2023-03-03T13:04:56.161Z,4.15
2023-03-03T13:07:43.664Z,3.85
2023-03-03T13:10:22.664Z,3.89
2023-03-03T13:13:11.998Z,3.87
2023-03-03T13:16:06.873Z,4.00
2023-03-03T13:18:57.937Z,4.21
2023-03-03T13:21:31.801Z,4.49
2023-03-03T13:24:15.670Z,4.43
2023-03-03T13:26:48.180Z,4.70
2023-03-03T13:29:37.309Z,4.41
2023-03-03T13:32:23.598Z,4.43
2023-03-03T13:35:00.615Z,4.43
2023-03-03T13:37:35.736Z,4.45
2023-03-03T13:40:13.835Z,4.50
2023-03-03T13:42:44.788Z,4.63
2023-03-03T13:45:21.856Z,4.70
2023-03-03T13:48:30.434Z,4.82
2023-03-03T13:51:03.836Z,5.61
2023-03-03T13:53:55.743Z,5.17
2023-03-03T13:56:28.441Z,5.18
2023-03-03T13:59:13.824Z,4.99
2023-03-03T14:01:58.801Z,4.87
2023-03-03T14:04:44.441Z,4.95
2023-03-03T14:07:28.675Z,5.22
2023-03-03T14:10:03.302Z,5.31
2023-03-03T14:12:47.994Z,5.28
2023-03-03T14:15:24.977Z,5.31
2023-03-03T14:18:05.745Z,5.54
2023-03-03T14:20:37.849Z,6.39
2023-03-03T14:23:13.336Z,7.39
2023-03-03T14:25:58.098Z,7.68
2023-03-03T14:28:27.911Z,7.94
2023-03-03T14:30:58.900Z,8.75
2023-03-03T14:33:30.115Z,9.07
2023-03-03T14:35:56.581Z,8.87
2023-03-03T14:38:36.451Z,8.81
2023-03-03T14:41:12.254Z,8.56
2023-03-03T14:43:41.753Z,8.60
2023-03-03T14:46:37.269Z,8.52
2023-03-03T14:49:07.266Z,7.91
2023-03-03T14:51:48.825Z,7.90
2023-03-03T14:54:22.202Z,8.28
2023-03-03T14:57:00.609Z,8.42
2023-03-03T14:59:28.550Z,8.73
2023-03-03T15:02:16.864Z,8.76
2023-03-03T15:04:45.463Z,8.95
2023-03-03T15:07:38.864Z,8.95
2023-03-03T15:10:07.540Z,9.05
2023-03-03T15:12:34.137Z,8.98
2023-03-03T15:15:11.517Z,9.22
2023-03-03T15:17:47.902Z,8.86
2023-03-03T15:20:32.095Z,8.79
2023-03-03T15:23:32.558Z,8.68
2023-03-03T15:26:13.331Z,9.04
2023-03-03T15:28:53.881Z,9.34
2023-03-03T15:31:28.310Z,9.69
2023-03-03T15:34:21.747Z,9.99
2023-03-03T15:36:56.225Z,10.29
2023-03-03T15:39:41.724Z,11.11
2023-03-03T15:42:15.544Z,11.32
2023-03-03T15:45:13.953Z,10.97
2023-03-03T15:47:56.252Z,10.89
2023-03-03T15:50:46.064Z,10.80
2023-03-03T15:53:27.811Z,10.74
2023-03-03T15:56:06.533Z,10.30
2023-03-03T15:58:52.622Z,9.85
2023-03-03T16:01:41.178Z,9.16
2023-03-03T16:04:14.856Z,8.41
2023-03-03T16:06:44.218Z,7.72
2023-03-03T16:09:25.010Z,7.18
2023-03-03T16:12:05.433Z,6.60
2023-03-03T16:15:15.662Z,6.34
2023-03-03T16:18:21.058Z,5.95
2023-03-03T16:20:47.405Z,5.71
2023-03-03T16:23:22.612Z,5.49
2023-03-03T16:26:08.193Z,5.20
2023-03-03T16:28:56.501Z,5.21
2023-03-03T16:31:33.529Z,4.98
2023-03-03T16:34:12.449Z,4.85
2023-03-03T16:37:04.436Z,4.72
2023-03-03T16:39:57.918Z,4.56
2023-03-03T16:42:28.557Z,4.49
2023-03-03T16:45:20.387Z,4.45
2023-03-03T16:47:52.826Z,4.36
2023-03-03T16:50:27.684Z,4.22
2023-03-03T16:53:02.363Z,4.09
2023-03-03T16:55:36.704Z,3.98
2023-03-03T16:58:16.286Z,3.92
2023-03-03T17:01:07.294Z,3.93
2023-03-03T17:04:10.933Z,3.85
2023-03-03T17:06:49.522Z,3.65
2023-03-03T17:09:42.329Z,3.66
2023-03-03T17:12:33.659Z,3.52
2023-03-03T17:15:25.551Z,3.46
2023-03-03T17:18:26.597Z,3.52
2023-03-03T17:21:01.195Z,3.48
2023-03-03T17:23:40.645Z,3.44
2023-03-03T17:26:29.039Z,3.34
2023-03-03T17:29:35.113Z,3.37
2023-03-03T17:32:20.083Z,3.37
2023-03-03T17:35:23.658Z,3.33
2023-03-03T17:38:06.353Z,3.34
2023-03-03T17:40:59.186Z,3.33
2023-03-03T17:43:35.930Z,3.26
2023-03-03T17:46:10.342Z,3.17
2023-03-03T17:48:42.877Z,3.33
2023-03-03T17:51:31.143Z,3.43
2023-03-03T17:54:08.050Z,3.45
2023-03-03T17:57:09.581Z,3.44
2023-03-03T17:59:57.414Z,3.59
2023-03-03T18:02:38.799Z,3.42
2023-03-03T18:05:27.289Z,3.34
2023-03-03T18:08:25.224Z,3.39
2023-03-03T18:11:10.351Z,3.38
2023-03-03T18:14:03.683Z,3.32
2023-03-03T18:16:48.467Z,3.36
2023-03-03T18:19:45.756Z,3.36
2023-03-03T18:22:44.758Z,3.38
2023-03-03T18:25:22.719Z,3.26
2023-03-03T18:28:01.146Z,3.40
2023-03-03T18:30:29.975Z,3.40
2023-03-03T18:32:56.283Z,3.41
2023-03-03T18:35:40.591Z,3.34
2023-03-03T18:38:15.876Z,3.33
2023-03-03T18:41:12.853Z,3.35
2023-03-03T18:43:44.938Z,3.35
2023-03-03T18:46:20.830Z,3.33
2023-03-03T18:49:08.168Z,3.30
2023-03-03T18:51:34.420Z,3.31
2023-03-03T18:54:20.258Z,3.35
2023-03-03T18:56:49.656Z,3.36
2023-03-03T18:59:31.108Z,3.32
2023-03-03T19:02:12.726Z,3.31
2023-03-03T19:04:43.280Z,3.26
2023-03-03T19:07:18.753Z,3.28
2023-03-03T19:09:48.073Z,3.29
2023-03-03T19:12:16.713Z,3.25
2023-03-03T19:14:48.040Z,3.26
2023-03-03T19:17:17.363Z,3.28
2023-03-03T19:20:10.304Z,3.27
2023-03-03T19:22:48.336Z,3.25
2023-03-03T19:25:20.577Z,3.26
2023-03-03T19:28:27.226Z,3.24
2023-03-03T19:30:57.761Z,3.31
2023-03-03T19:33:39.113Z,3.27
2023-03-03T19:36:21.039Z,3.26
2023-03-03T19:39:15.631Z,3.19
2023-03-03T19:42:19.513Z,3.18
2023-03-03T19:45:15.432Z,3.14
2023-03-03T19:47:51.699Z,3.07
2023-03-03T19:50:33.005Z,3.15
2023-03-03T19:53:22.431Z,3.14
2023-03-03T19:56:26.135Z,3.15
2023-03-03T19:59:14.141Z,3.12
2023-03-03T20:01:57.164Z,3.20
2023-03-03T20:04:45.213Z,3.22
2023-03-03T20:07:38.536Z,3.17
2023-03-03T20:10:16.529Z,3.21
2023-03-03T20:13:02.349Z,3.19
2023-03-03T20:15:47.273Z,3.24
2023-03-03T20:18:42.810Z,3.19
2023-03-03T20:21:16.310Z,3.26
2023-03-03T20:24:00.754Z,3.23
2023-03-03T20:27:07.143Z,3.21
2023-03-03T20:30:02.443Z,3.24
2023-03-03T20:32:56.923Z,3.16
2023-03-03T20:35:29.552Z,3.24
2023-03-03T20:38:22.167Z,3.23
2023-03-03T20:41:01.084Z,3.32
2023-03-03T20:43:50.019Z,3.38
2023-03-03T20:46:46.973Z,3.44
2023-03-03T20:49:38.322Z,3.36
2023-03-03T20:52:12.830Z,3.27
2023-03-03T20:54:54.665Z,3.26
2023-03-03T20:58:07.828Z,3.33
2023-03-03T21:00:47.570Z,3.27
2023-03-03T21:03:21.891Z,3.13
2023-03-03T21:06:00.066Z,3.17
2023-03-03T21:08:44.788Z,3.12
2023-03-03T21:11:13.739Z,3.09
2023-03-03T21:13:42.554Z,3.18
2023-03-03T21:16:27.659Z,3.10
2023-03-03T21:19:02.008Z,3.00
2023-03-03T21:21:30.968Z,3.01
2023-03-03T21:23:57.895Z,2.93
2023-03-03T21:26:53.940Z,3.05
2023-03-03T21:29:29.451Z,3.18
2023-03-03T21:32:01.726Z,3.17
2023-03-03T21:34:32.040Z,3.07
2023-03-03T21:37:00.613Z,2.92
2023-03-03T21:39:35.369Z,3.13
2023-03-03T21:42:02.843Z,3.19
2023-03-03T21:44:29.907Z,3.08
2023-03-03T21:46:58.524Z,3.20
2023-03-03T21:49:25.041Z,3.19
2023-03-03T21:51:51.577Z,3.10
2023-03-03T21:54:17.905Z,3.11
2023-03-03T21:56:44.215Z,3.00
2023-03-03T21:59:10.605Z,3.05
2023-03-03T22:01:38.326Z,2.95
2023-03-03T22:04:05.384Z,3.17
2023-03-03T22:06:31.765Z,3.20
2023-03-03T22:08:58.233Z,3.18
2023-03-03T22:11:24.570Z,3.33
2023-03-03T22:13:50.958Z,3.16
2023-03-03T22:16:17.352Z,3.30
2023-03-03T22:18:44.009Z,3.17
2023-03-03T22:21:10.325Z,3.25
2023-03-03T22:23:36.886Z,3.15
2023-03-03T22:26:03.313Z,3.17
2023-03-03T22:28:29.854Z,3.42
2023-03-03T22:30:56.650Z,3.27
2023-03-03T22:33:23.451Z,3.38
2023-03-03T22:35:49.885Z,3.10
2023-03-03T22:38:16.785Z,3.31
2023-03-03T22:40:43.715Z,3.23
2023-03-03T22:43:10.246Z,3.44
2023-03-03T22:45:37.235Z,3.29
2023-03-03T22:48:04.027Z,3.27
2023-03-03T22:50:30.333Z,3.32
2023-03-03T22:52:56.741Z,3.34
2023-03-03T22:55:23.304Z,3.28
2023-03-03T22:57:49.726Z,3.28
2023-03-03T23:00:16.319Z,3.23
2023-03-03T23:02:42.837Z,3.19
2023-03-03T23:05:09.596Z,3.14
2023-03-03T23:07:37.172Z,3.15
2023-03-03T23:10:04.366Z,3.10
2023-03-03T23:12:30.914Z,3.16
2023-03-03T23:14:57.434Z,3.41
2023-03-03T23:17:24.354Z,3.46
2023-03-03T23:19:51.133Z,3.27
2023-03-03T23:22:18.117Z,3.29
2023-03-03T23:24:44.680Z,3.24
2023-03-03T23:27:11.984Z,3.07
2023-03-03T23:29:38.927Z,3.05
2023-03-03T23:32:06.009Z,3.06
2023-03-03T23:34:32.457Z,3.34
2023-03-03T23:36:58.882Z,3.33
2023-03-03T23:39:25.271Z,3.38
2023-03-03T23:41:51.644Z,3.42
2023-03-03T23:44:18.153Z,3.32
2023-03-03T23:46:44.862Z,3.42
2023-03-03T23:49:11.324Z,3.53
2023-03-03T23:51:37.623Z,3.57
2023-03-03T23:54:04.162Z,3.50
2023-03-03T23:56:30.461Z,3.51
2023-03-03T23:58:56.782Z,3.46
